Terminal Aerodrome Forecast
Issued by NWS Bismarck, ND

Home | Current Version | Previous Version | Graphics & Text | Print | Product List | Glossary On
Versions: 1 2 3 4 5 6 7 8 9 10 11 12 13 14 15 16 17 18 19
000
FTUS43 KBIS 171134
TAFISN
TAF
KISN 171134Z 1712/1812 25012KT P6SM BKN100 WS020/28040KT
     FM171700 26015KT P6SM SCT070 SCT100
     FM172300 27011KT P6SM SKC
     FM180200 26007KT P6SM SKC=

USA.gov is the U.S. government's official web portal to all federal, state and local government web resources and services.